Time;durP1;ratioP1;P1;durP2;ratioP2;P2;SDS_P1;SDS_P2;PMS_P1;PMS_P2;Temp;Humidity;BMP_temperature;BMP_pressure;BME280_temperature;BME280_humidity;BME280_pressure;Samples;Min_cycle;Max_cycle;Signal;HPM_P1;HPM_P2
2021/08/04 00:02:18;;;;;;;15.07;8.48;;;19.50;85.10;;;;;;5033440;28;20079;-74
2021/08/04 00:04:44;;;;;;;16.08;8.90;;;19.50;85.20;;;;;;5032671;28;20388;-74
2021/08/04 00:07:10;;;;;;;13.65;8.10;;;19.50;85.30;;;;;;5034137;28;20378;-74
2021/08/04 00:09:35;;;;;;;12.30;8.50;;;19.40;85.60;;;;;;5032737;28;20036;-74
2021/08/04 00:12:02;;;;;;;14.20;9.32;;;19.40;85.80;;;;;;5033694;28;20079;-75
2021/08/04 00:14:27;;;;;;;19.80;9.48;;;19.50;86.00;;;;;;5033442;28;20079;-75
2021/08/04 00:16:53;;;;;;;13.80;8.57;;;19.40;85.90;;;;;;5032516;28;20051;-75
2021/08/04 00:19:19;;;;;;;13.43;8.15;;;19.40;86.10;;;;;;5032887;28;20064;-74
2021/08/04 00:21:45;;;;;;;12.63;8.88;;;19.40;86.10;;;;;;5034035;28;20482;-74
2021/08/04 00:24:10;;;;;;;12.82;9.23;;;19.20;86.00;;;;;;5032485;28;20517;-74
2021/08/04 00:26:36;;;;;;;12.50;8.63;;;19.10;86.50;;;;;;5033416;28;20108;-74
2021/08/04 00:29:02;;;;;;;16.35;9.32;;;19.00;87.00;;;;;;5032023;28;20114;-74
2021/08/04 00:31:27;;;;;;;14.55;9.20;;;19.00;87.20;;;;;;5032591;28;20035;-74
2021/08/04 00:33:54;;;;;;;12.50;9.50;;;19.00;87.40;;;;;;5033609;28;20115;-74
2021/08/04 00:36:19;;;;;;;13.05;8.93;;;18.90;87.20;;;;;;5033470;28;20029;-74
2021/08/04 00:38:45;;;;;;;14.50;9.27;;;18.90;87.60;;;;;;5033499;28;20359;-74
2021/08/04 00:41:11;;;;;;;12.45;8.90;;;18.90;87.60;;;;;;5032255;28;20057;-74
2021/08/04 00:43:36;;;;;;;13.00;8.52;;;18.90;87.70;;;;;;5033504;28;20022;-74
2021/08/04 00:46:02;;;;;;;12.90;8.75;;;19.00;88.00;;;;;;5033328;28;20500;-75
2021/08/04 00:48:28;;;;;;;16.38;9.70;;;18.90;88.60;;;;;;5032176;28;20371;-75
2021/08/04 00:50:54;;;;;;;14.90;9.50;;;18.90;87.90;;;;;;5033604;28;20025;-75
2021/08/04 00:53:28;;;;;;;12.43;9.48;;;18.90;88.00;;;;;;5032198;28;20470;-75
2021/08/04 00:55:56;;;;;;;15.85;9.52;;;18.90;88.00;;;;;;5032227;28;20100;-75
2021/08/04 00:58:36;;;;;;;15.63;9.95;;;19.00;88.00;;;;;;5031866;28;20045;-75
2021/08/04 01:01:11;;;;;;;17.20;9.98;;;18.90;87.80;;;;;;5033471;28;20043;-75
2021/08/04 01:03:42;;;;;;;20.55;10.27;;;18.90;88.00;;;;;;5033630;28;20028;-74
2021/08/04 01:06:17;;;;;;;15.95;9.63;;;18.80;88.70;;;;;;5031753;28;20045;-74
2021/08/04 01:08:50;;;;;;;17.63;9.25;;;18.80;88.80;;;;;;5033398;28;20067;-75
2021/08/04 01:11:17;;;;;;;16.85;9.23;;;18.70;88.90;;;;;;5032043;28;20053;-74
2021/08/04 01:13:52;;;;;;;14.95;10.30;;;18.70;88.90;;;;;;5032057;28;20482;-75
2021/08/04 01:16:27;;;;;;;16.08;10.00;;;18.70;88.50;;;;;;5036108;28;20029;-75
2021/08/04 01:19:11;;;;;;;15.43;10.23;;;18.60;88.70;;;;;;5037626;28;20048;-75
2021/08/04 01:21:54;;;;;;;16.02;10.68;;;18.60;88.70;;;;;;5037638;28;20124;-75
2021/08/04 01:24:50;;;;;;;16.33;9.20;;;18.50;89.10;;;;;;5036391;28;20053;-75
2021/08/04 01:27:16;;;;;;;13.68;9.45;;;18.40;89.70;;;;;;5036071;28;20132;-75
2021/08/04 01:29:43;;;;;;;13.88;9.38;;;18.40;89.80;;;;;;5036427;28;20061;-75
2021/08/04 01:32:10;;;;;;;16.02;10.02;;;18.30;90.10;;;;;;5035694;28;20419;-75
2021/08/04 01:34:38;;;;;;;16.55;10.35;;;18.40;90.20;;;;;;5035550;28;20364;-75
2021/08/04 01:37:05;;;;;;;16.73;10.30;;;18.40;90.30;;;;;;5035570;28;20371;-75
2021/08/04 01:39:33;;;;;;;14.85;10.07;;;18.40;90.30;;;;;;5034991;28;20025;-75
2021/08/04 01:42:01;;;;;;;14.80;9.70;;;18.50;90.40;;;;;;5035143;28;20083;-75
2021/08/04 01:44:28;;;;;;;14.32;9.70;;;18.50;90.50;;;;;;5035096;28;20053;-75
2021/08/04 01:46:55;;;;;;;13.40;10.00;;;18.50;90.60;;;;;;5035096;28;20431;-75
2021/08/04 01:49:21;;;;;;;15.30;10.52;;;18.50;90.60;;;;;;5034989;28;20525;-75
2021/08/04 01:51:48;;;;;;;18.02;10.55;;;18.50;90.60;;;;;;5035012;28;20025;-75
2021/08/04 01:54:16;;;;;;;17.27;10.13;;;18.50;90.70;;;;;;5034837;28;20375;-75
2021/08/04 01:56:42;;;;;;;20.95;11.13;;;18.50;90.60;;;;;;5034645;28;20017;-75
2021/08/04 01:59:08;;;;;;;20.45;11.68;;;18.50;90.70;;;;;;5034941;28;20060;-75
2021/08/04 02:01:36;;;;;;;22.33;12.82;;;18.50;90.60;;;;;;5036446;28;20510;-75
2021/08/04 02:04:01;;;;;;;19.92;11.88;;;18.40;90.50;;;;;;5036091;28;20030;-75
2021/08/04 02:06:39;;;;;;;19.77;12.48;;;18.40;90.60;;;;;;5036240;28;20056;-75
2021/08/04 02:09:20;;;;;;;17.88;12.18;;;18.30;90.40;;;;;;5035710;28;20036;-75
2021/08/04 02:11:52;;;;;;;22.42;12.38;;;18.20;90.50;;;;;;5035205;28;20367;-75
2021/08/04 02:14:44;;;;;;;20.00;13.20;;;18.10;90.70;;;;;;5034417;28;20026;-75
2021/08/04 02:17:36;;;;;;;16.90;12.70;;;18.00;90.60;;;;;;5035693;28;20017;-75
2021/08/04 02:20:08;;;;;;;20.90;12.75;;;18.00;91.00;;;;;;5035773;28;20052;-74
2021/08/04 02:22:40;;;;;;;25.05;16.50;;;18.00;91.00;;;;;;5034578;28;20475;-74
2021/08/04 02:25:20;;;;;;;27.23;17.00;;;18.00;91.00;;;;;;5034059;28;20085;-74
2021/08/04 02:27:48;;;;;;;28.50;17.55;;;17.90;91.00;;;;;;5034304;28;20460;-74
2021/08/04 02:30:18;;;;;;;25.40;16.50;;;17.90;91.20;;;;;;5034295;28;20037;-74
2021/08/04 02:32:45;;;;;;;27.20;16.25;;;17.80;91.40;;;;;;5034210;28;20411;-75
2021/08/04 02:35:11;;;;;;;36.28;18.90;;;17.80;91.80;;;;;;5033927;28;20087;-75
2021/08/04 02:37:37;;;;;;;29.65;17.33;;;17.80;91.80;;;;;;5035607;28;20108;-75
2021/08/04 02:40:05;;;;;;;37.22;19.23;;;17.80;92.00;;;;;;5035098;28;20025;-75
2021/08/04 02:42:30;;;;;;;37.03;19.05;;;17.90;91.80;;;;;;5035404;28;20025;-75
2021/08/04 02:44:56;;;;;;;42.17;20.23;;;17.90;91.70;;;;;;5035662;28;20025;-75
2021/08/04 02:47:23;;;;;;;41.28;21.80;;;17.90;91.50;;;;;;5036259;28;20433;-75
2021/08/04 02:49:50;;;;;;;95.43;46.53;;;17.90;91.50;;;;;;5036174;28;20378;-75
2021/08/04 02:52:19;;;;;;;195.52;80.88;;;18.00;91.40;;;;;;5035725;28;20019;-75
2021/08/04 02:54:46;;;;;;;91.20;40.15;;;18.00;91.20;;;;;;5035083;28;20336;-75
2021/08/04 02:57:12;;;;;;;37.67;22.23;;;18.10;91.10;;;;;;5033777;28;20075;-75
2021/08/04 02:59:38;;;;;;;52.42;26.58;;;18.10;91.00;;;;;;5035313;28;20494;-75
2021/08/04 03:02:04;;;;;;;59.47;31.15;;;18.20;91.40;;;;;;5035032;28;20053;-75
2021/08/04 03:04:30;;;;;;;48.75;25.20;;;18.40;91.70;;;;;;5033853;28;20120;-75
2021/08/04 03:06:55;;;;;;;46.80;24.95;;;18.60;91.60;;;;;;5034588;28;20486;-75
2021/08/04 03:09:21;;;;;;;38.97;21.10;;;18.90;91.40;;;;;;5033445;28;20022;-75
2021/08/04 03:11:47;;;;;;;30.70;18.45;;;19.00;90.80;;;;;;5033018;28;20109;-74
2021/08/04 03:14:12;;;;;;;35.53;17.77;;;19.30;90.70;;;;;;5033220;28;20032;-75
2021/08/04 03:16:39;;;;;;;31.38;17.85;;;19.70;90.30;;;;;;5033706;28;20029;-75
2021/08/04 03:19:04;;;;;;;32.38;18.40;;;20.00;89.10;;;;;;5034335;28;20029;-74
2021/08/04 03:21:30;;;;;;;25.90;16.80;;;20.30;87.30;;;;;;5033178;28;20021;-75
2021/08/04 03:23:56;;;;;;;29.60;17.00;;;20.50;86.20;;;;;;5032945;28;20031;-75
2021/08/04 03:26:22;;;;;;;23.83;15.00;;;20.80;85.00;;;;;;5019888;28;20030;-81
2021/08/04 03:28:48;;;;;;;24.92;15.60;;;21.00;84.00;;;;;;5060572;28;20482;-79
2021/08/04 03:31:14;;;;;;;23.85;15.20;;;21.40;82.80;;;;;;5032387;28;20151;-69
2021/08/04 03:33:39;;;;;;;26.13;15.57;;;21.60;81.70;;;;;;5032965;28;20057;-70
2021/08/04 03:36:05;;;;;;;32.30;14.80;;;21.90;80.60;;;;;;5032494;28;20096;-69
2021/08/04 03:38:31;;;;;;;24.60;15.82;;;22.20;79.90;;;;;;5024275;28;20057;-69
2021/08/04 03:40:57;;;;;;;26.55;15.15;;;22.40;78.40;;;;;;5021815;28;20137;-69
2021/08/04 03:43:22;;;;;;;23.98;15.43;;;22.60;77.40;;;;;;5014493;28;20097;-69
2021/08/04 03:45:48;;;;;;;25.70;15.73;;;22.90;76.30;;;;;;5014577;28;20495;-69
2021/08/04 03:48:14;;;;;;;25.58;15.02;;;23.20;75.20;;;;;;5015469;28;20029;-69
2021/08/04 03:50:40;;;;;;;26.48;14.93;;;23.50;74.40;;;;;;5013283;28;20091;-69
2021/08/04 03:53:05;;;;;;;21.75;14.95;;;23.70;73.30;;;;;;5013715;28;20456;-69
2021/08/04 03:55:31;;;;;;;28.15;13.95;;;23.80;72.60;;;;;;5021911;28;20091;-70
2021/08/04 03:57:57;;;;;;;23.55;14.05;;;24.00;72.30;;;;;;5012898;28;20025;-67
2021/08/04 04:00:22;;;;;;;22.42;12.52;;;24.30;71.40;;;;;;5018735;28;20068;-68
2021/08/04 04:02:48;;;;;;;24.00;13.20;;;24.50;70.90;;;;;;5034224;28;20356;-68
2021/08/04 04:05:14;;;;;;;24.88;12.25;;;24.80;70.30;;;;;;5033941;28;20041;-68
2021/08/04 04:07:40;;;;;;;18.98;12.00;;;25.20;69.50;;;;;;5029297;28;20104;-69
2021/08/04 04:10:07;;;;;;;25.65;13.13;;;25.50;68.60;;;;;;5033872;28;20025;-69
2021/08/04 04:12:33;;;;;;;19.27;12.80;;;25.60;68.20;;;;;;5065915;28;20028;-68
2021/08/04 04:14:59;;;;;;;20.33;12.27;;;25.90;67.70;;;;;;5033653;28;20033;-69
2021/08/04 04:17:25;;;;;;;21.08;12.77;;;26.20;67.30;;;;;;5056812;28;20167;-69
2021/08/04 04:19:51;;;;;;;19.65;12.07;;;26.50;66.70;;;;;;5015656;28;20033;-69
2021/08/04 04:22:16;;;;;;;26.27;12.68;;;26.80;65.70;;;;;;5013374;28;20052;-70
2021/08/04 04:24:42;;;;;;;21.48;11.88;;;27.00;65.30;;;;;;5024779;28;20363;-70
2021/08/04 04:27:08;;;;;;;21.70;10.70;;;27.30;64.60;;;;;;5031539;28;20020;-70
2021/08/04 04:29:33;;;;;;;21.13;11.43;;;27.50;63.90;;;;;;5032964;28;20021;-69
2021/08/04 04:31:59;;;;;;;16.48;10.30;;;27.80;63.40;;;;;;5031970;28;20025;-69
2021/08/04 04:34:25;;;;;;;20.88;12.43;;;28.20;62.80;;;;;;5033288;28;20017;-69
2021/08/04 04:36:50;;;;;;;18.40;10.60;;;28.40;62.30;;;;;;5032264;28;20026;-69
2021/08/04 04:39:16;;;;;;;16.88;10.93;;;28.60;61.70;;;;;;5032348;28;20053;-68
2021/08/04 04:41:42;;;;;;;17.88;11.07;;;28.90;61.40;;;;;;5030858;28;20368;-67
2021/08/04 04:44:08;;;;;;;21.40;11.00;;;29.10;61.00;;;;;;5032155;28;20398;-73
2021/08/04 04:46:33;;;;;;;19.40;11.80;;;29.30;60.60;;;;;;5018759;28;20025;-69
2021/08/04 04:48:59;;;;;;;31.40;12.40;;;29.60;60.00;;;;;;5022498;28;20021;-68
2021/08/04 04:51:25;;;;;;;40.80;15.23;;;29.90;59.70;;;;;;5036008;28;20021;-67
2021/08/04 04:53:50;;;;;;;22.02;12.45;;;30.10;59.50;;;;;;5035107;28;20033;-68
2021/08/04 04:56:16;;;;;;;21.35;12.02;;;30.40;59.30;;;;;;5035332;28;20418;-67
2021/08/04 04:58:42;;;;;;;21.63;13.55;;;30.60;58.80;;;;;;5063085;28;20418;-67
2021/08/04 05:01:08;;;;;;;24.00;12.25;;;30.70;58.30;;;;;;5024472;28;20038;-67
2021/08/04 05:03:33;;;;;;;19.50;11.80;;;30.80;58.00;;;;;;5029023;28;20025;-68
2021/08/04 05:05:59;;;;;;;22.88;12.13;;;30.90;57.10;;;;;;5015695;28;20049;-66
2021/08/04 05:08:25;;;;;;;17.63;8.88;;;31.20;56.90;;;;;;5026867;28;20049;-69
2021/08/04 05:10:51;;;;;;;12.45;5.90;;;31.40;56.00;;;;;;5037563;28;20033;-68
2021/08/04 05:13:16;;;;;;;8.20;5.70;;;31.50;55.00;;;;;;5039556;28;20403;-68
2021/08/04 05:15:43;;;;;;;7.45;5.22;;;31.60;54.00;;;;;;5036777;28;20089;-68
2021/08/04 05:18:08;;;;;;;11.98;4.63;;;31.70;53.50;;;;;;5031871;28;20048;-72
2021/08/04 05:20:34;;;;;;;6.07;4.95;;;31.90;53.10;;;;;;5032534;28;20496;-69
2021/08/04 05:23:00;;;;;;;8.55;5.32;;;32.10;52.70;;;;;;5034767;28;20031;-69
2021/08/04 05:25:27;;;;;;;9.30;4.82;;;32.20;52.10;;;;;;5036377;28;20443;-69
2021/08/04 05:27:53;;;;;;;11.05;4.57;;;32.40;51.90;;;;;;5037197;28;20040;-69
2021/08/04 05:30:18;;;;;;;7.57;4.60;;;32.60;52.10;;;;;;5033603;28;20022;-69
2021/08/04 05:32:44;;;;;;;5.97;4.18;;;32.60;51.60;;;;;;5034553;28;20024;-69
2021/08/04 05:35:11;;;;;;;5.97;3.80;;;32.70;51.20;;;;;;5027850;28;20022;-71
2021/08/04 05:37:37;;;;;;;10.40;4.63;;;32.90;50.90;;;;;;5031442;28;20053;-70
2021/08/04 05:40:04;;;;;;;7.45;4.13;;;33.10;51.10;;;;;;5033880;28;20068;-69
2021/08/04 05:42:30;;;;;;;5.60;3.92;;;33.40;50.90;;;;;;5033837;28;20033;-70
2021/08/04 05:44:55;;;;;;;7.30;4.13;;;33.40;50.20;;;;;;5033433;28;20520;-69
2021/08/04 05:47:21;;;;;;;7.25;4.53;;;33.60;50.00;;;;;;5039174;28;20036;-70
2021/08/04 05:49:48;;;;;;;6.53;4.30;;;33.70;49.20;;;;;;5049738;28;20449;-70
2021/08/04 05:52:14;;;;;;;6.50;3.95;;;33.90;49.50;;;;;;5037655;28;20080;-69
2021/08/04 05:54:40;;;;;;;9.35;5.05;;;34.00;49.20;;;;;;5045597;28;20026;-70
2021/08/04 05:57:07;;;;;;;7.22;4.78;;;34.10;49.20;;;;;;5036655;28;20028;-68
2021/08/04 05:59:32;;;;;;;9.70;3.67;;;34.10;49.10;;;;;;5036622;28;20069;-69
2021/08/04 06:01:58;;;;;;;6.03;4.05;;;34.30;48.90;;;;;;5044438;28;20072;-69
2021/08/04 06:04:24;;;;;;;7.63;3.88;;;34.30;48.30;;;;;;5042337;28;20040;-73
2021/08/04 06:06:50;;;;;;;7.15;3.55;;;34.30;47.70;;;;;;5044592;28;20049;-69
2021/08/04 06:09:15;;;;;;;8.25;3.58;;;34.60;47.70;;;;;;5035565;28;20033;-72
2021/08/04 06:11:41;;;;;;;5.00;3.72;;;34.70;47.00;;;;;;5039167;28;20017;-72
2021/08/04 06:14:07;;;;;;;5.40;3.38;;;34.80;47.40;;;;;;5024467;28;20087;-78
2021/08/04 06:16:33;;;;;;;6.03;3.80;;;35.00;47.90;;;;;;5030576;28;20017;-72
2021/08/04 06:18:59;;;;;;;6.30;3.55;;;35.00;47.10;;;;;;5020276;28;20048;-69
2021/08/04 06:21:26;;;;;;;7.93;4.03;;;35.00;46.80;;;;;;5023704;28;20452;-69
2021/08/04 06:23:53;;;;;;;8.98;3.53;;;35.00;46.70;;;;;;5014052;28;20337;-69
2021/08/04 06:26:19;;;;;;;6.18;3.80;;;35.10;46.00;;;;;;5013976;28;20029;-69
2021/08/04 06:28:45;;;;;;;5.53;3.53;;;35.30;46.20;;;;;;5014304;28;20014;-69
2021/08/04 06:31:11;;;;;;;4.72;3.28;;;35.30;45.70;;;;;;5014429;28;20410;-69
2021/08/04 06:33:37;;;;;;;8.30;3.10;;;35.40;45.00;;;;;;5014292;28;20097;-69
2021/08/04 06:36:03;;;;;;;7.53;3.00;;;35.50;44.90;;;;;;5013267;28;20137;-69
2021/08/04 06:38:29;;;;;;;5.15;2.70;;;35.50;44.30;;;;;;5014988;28;20366;-68
2021/08/04 06:40:54;;;;;;;6.43;2.88;;;35.50;43.80;;;;;;5013945;28;20081;-68
2021/08/04 06:43:22;;;;;;;6.82;2.72;;;35.50;43.00;;;;;;5013937;28;20026;-68
2021/08/04 06:45:48;;;;;;;9.60;3.30;;;35.50;42.80;;;;;;5015240;28;20076;-68
2021/08/04 06:48:14;;;;;;;6.07;3.10;;;35.60;43.30;;;;;;5015255;28;20365;-68
2021/08/04 06:50:40;;;;;;;5.78;2.42;;;35.80;43.80;;;;;;5013983;28;20057;-68
2021/08/04 06:53:06;;;;;;;6.22;2.70;;;36.00;42.90;;;;;;5015313;28;20431;-68
2021/08/04 06:55:31;;;;;;;8.00;2.70;;;35.80;42.70;;;;;;5015264;28;20026;-68
2021/08/04 06:57:57;;;;;;;6.57;2.63;;;35.60;43.10;;;;;;5013858;28;20120;-68
2021/08/04 07:00:23;;;;;;;8.48;3.00;;;35.50;42.50;;;;;;5014865;28;20105;-68
2021/08/04 07:02:49;;;;;;;9.68;3.58;;;35.60;42.90;;;;;;5015128;28;20048;-68
2021/08/04 07:05:17;;;;;;;7.30;2.80;;;35.80;43.70;;;;;;5014200;28;20445;-68
2021/08/04 07:07:44;;;;;;;7.10;2.38;;;35.80;43.10;;;;;;5015124;28;20026;-68
2021/08/04 07:10:11;;;;;;;8.63;2.50;;;35.80;41.90;;;;;;5013755;28;20033;-68
2021/08/04 07:12:37;;;;;;;5.72;2.50;;;35.80;41.70;;;;;;5013619;28;20446;-68
2021/08/04 07:15:03;;;;;;;5.80;2.80;;;35.80;41.20;;;;;;5013562;28;20057;-68
2021/08/04 07:17:28;;;;;;;8.60;3.33;;;36.00;41.60;;;;;;5013519;28;20021;-68
2021/08/04 07:19:54;;;;;;;8.55;4.03;;;36.00;42.00;;;;;;5013493;28;20026;-69
2021/08/04 07:22:20;;;;;;;12.80;3.58;;;36.00;42.20;;;;;;5014686;28;20511;-69
2021/08/04 07:24:45;;;;;;;6.50;3.05;;;36.10;42.50;;;;;;5014646;28;20025;-69
2021/08/04 07:27:11;;;;;;;7.25;2.85;;;36.20;42.90;;;;;;5013162;28;20419;-69
2021/08/04 07:29:37;;;;;;;8.98;3.20;;;36.20;42.70;;;;;;5013479;28;20140;-69
2021/08/04 07:32:03;;;;;;;5.47;3.03;;;36.30;42.90;;;;;;5014277;28;20080;-68
2021/08/04 07:34:29;;;;;;;8.45;3.55;;;36.40;43.20;;;;;;5013230;28;20460;-68
2021/08/04 07:36:54;;;;;;;6.63;2.88;;;36.60;42.50;;;;;;5014362;28;20026;-68
2021/08/04 07:39:21;;;;;;;5.13;2.90;;;36.70;42.00;;;;;;5014426;28;20349;-69
2021/08/04 07:41:47;;;;;;;5.80;2.95;;;36.50;41.90;;;;;;5013194;28;20034;-69
2021/08/04 07:44:13;;;;;;;6.38;2.80;;;36.10;42.10;;;;;;5014462;28;20029;-69
2021/08/04 07:46:38;;;;;;;6.03;3.13;;;36.10;43.30;;;;;;5014113;28;20026;-69
2021/08/04 07:49:04;;;;;;;7.10;3.00;;;36.30;42.70;;;;;;5013087;28;20527;-69
2021/08/04 07:51:30;;;;;;;6.05;3.00;;;36.40;42.60;;;;;;5013109;28;20469;-69
2021/08/04 07:53:55;;;;;;;5.50;2.78;;;36.40;42.70;;;;;;5013280;28;20026;-69
2021/08/04 07:56:23;;;;;;;5.25;2.70;;;36.50;42.70;;;;;;5014345;28;20399;-68
2021/08/04 07:58:50;;;;;;;4.20;2.40;;;36.50;41.60;;;;;;5013933;28;20105;-68
2021/08/04 08:01:16;;;;;;;6.30;2.67;;;36.50;40.90;;;;;;5012389;28;20038;-68
2021/08/04 08:03:42;;;;;;;9.02;5.40;;;36.50;40.40;;;;;;5012998;28;20333;-68
2021/08/04 08:06:08;;;;;;;17.90;10.68;;;36.40;40.60;;;;;;5014094;28;20053;-68
2021/08/04 08:08:34;;;;;;;12.20;9.90;;;36.30;41.20;;;;;;5012745;28;20022;-68
2021/08/04 08:11:01;;;;;;;17.30;7.07;;;36.10;41.70;;;;;;5013072;28;20025;-68
2021/08/04 08:13:27;;;;;;;11.98;8.00;;;36.30;41.30;;;;;;5014001;28;20022;-69
2021/08/04 08:15:53;;;;;;;11.68;6.68;;;36.40;41.00;;;;;;5013801;28;20026;-68
2021/08/04 08:18:19;;;;;;;7.00;4.50;;;36.60;41.00;;;;;;5013309;28;20029;-68
2021/08/04 08:20:44;;;;;;;6.47;3.70;;;36.60;40.50;;;;;;5013642;28;20030;-69
2021/08/04 08:23:12;;;;;;;7.68;3.58;;;36.60;41.20;;;;;;5011962;28;20088;-68
2021/08/04 08:25:37;;;;;;;4.70;3.30;;;36.70;41.00;;;;;;5012666;28;20115;-68
2021/08/04 08:28:04;;;;;;;6.72;2.75;;;36.80;40.50;;;;;;5013570;28;20053;-69
2021/08/04 08:30:30;;;;;;;6.43;2.88;;;37.00;40.00;;;;;;5013599;28;20567;-69
2021/08/04 08:32:55;;;;;;;3.25;2.17;;;37.00;39.50;;;;;;5014025;28;20022;-69
2021/08/04 08:35:21;;;;;;;5.25;2.03;;;37.20;39.00;;;;;;5013698;28;20026;-68
2021/08/04 08:37:49;;;;;;;5.43;2.25;;;36.90;38.70;;;;;;5012426;28;20594;-68
2021/08/04 08:40:17;;;;;;;5.07;2.38;;;36.80;39.10;;;;;;5012353;28;20033;-68
2021/08/04 08:42:44;;;;;;;7.03;2.40;;;36.80;39.40;;;;;;5012380;28;20030;-69
2021/08/04 08:45:11;;;;;;;8.05;2.30;;;36.80;39.40;;;;;;5012407;28;20758;-68
2021/08/04 08:47:43;;;;;;;3.80;2.20;;;36.70;39.50;;;;;;5013508;28;20045;-68
2021/08/04 08:50:10;;;;;;;6.32;3.22;;;36.50;39.00;;;;;;5012243;28;20048;-69
2021/08/04 08:52:36;;;;;;;5.47;3.42;;;36.30;39.10;;;;;;5013563;28;20448;-68
2021/08/04 08:55:04;;;;;;;3.30;2.20;;;36.20;40.60;;;;;;5013406;28;20018;-68
2021/08/04 08:57:30;;;;;;;4.72;2.20;;;36.30;41.00;;;;;;5012203;28;20368;-69
2021/08/04 08:59:57;;;;;;;5.20;2.13;;;36.50;40.40;;;;;;5013906;28;20029;-68
2021/08/04 09:02:27;;;;;;;5.55;2.30;;;36.40;39.90;;;;;;5014185;28;20025;-69
2021/08/04 09:05:00;;;;;;;2.78;2.00;;;36.50;39.40;;;;;;5013463;28;20030;-68
2021/08/04 09:07:37;;;;;;;3.90;2.28;;;36.50;39.00;;;;;;5013183;28;20129;-68
2021/08/04 09:10:19;;;;;;;6.25;3.25;;;36.40;39.40;;;;;;5013857;28;20034;-68
2021/08/04 09:12:58;;;;;;;3.90;2.35;;;36.60;39.80;;;;;;5013478;28;20026;-68
2021/08/04 09:15:35;;;;;;;4.85;2.30;;;36.70;40.00;;;;;;5013458;28;20104;-68
2021/08/04 09:18:15;;;;;;;3.47;2.00;;;36.70;39.90;;;;;;5013429;28;20017;-68
2021/08/04 09:20:53;;;;;;;5.22;2.22;;;36.50;39.80;;;;;;5012458;28;20026;-69
2021/08/04 09:23:22;;;;;;;3.72;2.33;;;36.50;39.40;;;;;;5012442;28;20026;-69
2021/08/04 09:26:10;;;;;;;3.63;2.30;;;36.30;39.90;;;;;;5013470;28;20022;-68
2021/08/04 09:28:57;;;;;;;6.55;2.47;;;36.30;40.30;;;;;;5013135;28;20084;-69
2021/08/04 09:31:48;;;;;;;4.63;2.40;;;36.30;40.00;;;;;;5013193;28;20030;-68
2021/08/04 09:34:36;;;;;;;6.85;2.50;;;36.30;39.60;;;;;;5013668;28;20025;-68
2021/08/04 09:37:09;;;;;;;6.32;3.15;;;35.90;40.20;;;;;;5015418;28;20418;-68
2021/08/04 09:39:37;;;;;;;5.00;2.60;;;35.60;41.00;;;;;;5015442;28;20022;-68
2021/08/04 09:42:04;;;;;;;3.92;2.90;;;35.60;40.70;;;;;;5016839;28;20034;-68
2021/08/04 09:44:30;;;;;;;4.60;2.60;;;35.70;40.80;;;;;;5014986;28;20018;-69
2021/08/04 09:47:12;;;;;;;4.97;3.55;;;35.90;40.50;;;;;;5015360;28;20028;-68
2021/08/04 09:49:56;;;;;;;5.07;2.85;;;36.20;40.30;;;;;;5014965;28;20029;-68
2021/08/04 09:52:22;;;;;;;6.50;2.40;;;36.50;40.00;;;;;;5015422;28;20080;-69
2021/08/04 09:54:48;;;;;;;7.20;2.60;;;36.90;40.30;;;;;;5016520;28;20026;-69
2021/08/04 09:57:14;;;;;;;5.93;3.00;;;37.10;39.90;;;;;;5016373;28;20367;-68
2021/08/04 10:00:00;;;;;;;5.47;2.58;;;37.20;38.80;;;;;;5016215;28;20018;-68
2021/08/04 10:02:28;;;;;;;3.70;2.50;;;37.20;38.40;;;;;;5016772;28;20041;-69
2021/08/04 10:05:19;;;;;;;3.63;2.60;;;37.20;37.00;;;;;;5014972;28;20083;-69
2021/08/04 10:08:01;;;;;;;6.93;2.42;;;36.70;38.00;;;;;;5015089;28;20076;-68
2021/08/04 10:10:28;;;;;;;3.67;2.00;;;36.40;38.80;;;;;;5015917;28;20038;-69
2021/08/04 10:12:55;;;;;;;5.32;2.22;;;36.20;38.50;;;;;;5016176;28;20363;-69
2021/08/04 10:15:21;;;;;;;4.65;2.05;;;36.00;38.80;;;;;;5014803;28;20495;-69
2021/08/04 10:17:48;;;;;;;4.65;2.20;;;35.80;38.90;;;;;;5014477;28;20022;-69
2021/08/04 10:20:15;;;;;;;2.80;1.85;;;35.80;39.40;;;;;;5014467;28;20033;-69
2021/08/04 10:22:41;;;;;;;6.05;2.38;;;36.00;39.40;;;;;;5015580;28;20022;-69
2021/08/04 10:25:07;;;;;;;3.92;2.53;;;36.40;39.30;;;;;;5014267;28;20037;-69
2021/08/04 10:27:34;;;;;;;4.57;2.10;;;36.70;38.60;;;;;;5016049;28;20071;-69
2021/08/04 10:30:00;;;;;;;3.67;2.05;;;37.00;37.60;;;;;;5014765;28;20460;-69
2021/08/04 10:32:28;;;;;;;3.28;1.80;;;37.20;38.00;;;;;;5014364;28;20024;-69
2021/08/04 10:34:56;;;;;;;3.97;2.00;;;37.50;36.70;;;;;;5014590;28;20026;-69
2021/08/04 10:37:24;;;;;;;3.20;1.83;;;37.80;36.60;;;;;;5015402;28;20022;-70
2021/08/04 10:39:50;;;;;;;4.15;2.00;;;37.80;36.60;;;;;;5014632;28;20026;-69
2021/08/04 10:42:15;;;;;;;6.13;1.92;;;37.90;35.80;;;;;;5014366;28;20045;-69
2021/08/04 10:44:43;;;;;;;2.95;2.00;;;37.90;35.70;;;;;;5014323;28;20571;-69
2021/08/04 10:47:25;;;;;;;3.88;2.10;;;37.70;35.20;;;;;;5015219;28;20100;-69
2021/08/04 10:50:11;;;;;;;4.07;2.10;;;37.30;35.30;;;;;;5014029;28;20064;-69
2021/08/04 10:52:57;;;;;;;3.17;2.13;;;36.90;36.40;;;;;;5014001;28;20018;-69
2021/08/04 10:55:23;;;;;;;4.32;2.00;;;36.70;37.20;;;;;;5015163;28;20427;-69
2021/08/04 10:58:04;;;;;;;4.30;2.00;;;36.30;36.60;;;;;;5014058;28;20451;-69
2021/08/04 11:00:31;;;;;;;2.60;1.90;;;35.60;36.90;;;;;;5014872;28;20026;-68
2021/08/04 11:02:57;;;;;;;6.25;1.98;;;35.00;37.40;;;;;;5015411;28;20026;-68
2021/08/04 11:05:23;;;;;;;4.07;2.20;;;34.20;37.90;;;;;;5014933;28;20106;-69
2021/08/04 11:08:15;;;;;;;4.68;2.20;;;33.50;38.60;;;;;;5015099;28;20029;-68
2021/08/04 11:10:41;;;;;;;4.20;2.20;;;32.90;40.20;;;;;;5014882;28;20025;-68
2021/08/04 11:13:07;;;;;;;6.10;2.10;;;32.60;40.40;;;;;;5015047;28;20026;-68
2021/08/04 11:15:33;;;;;;;4.47;2.05;;;32.30;40.30;;;;;;5013534;28;20049;-68
2021/08/04 11:18:02;;;;;;;3.20;2.10;;;31.90;40.90;;;;;;5015145;28;20053;-68
2021/08/04 11:20:29;;;;;;;4.95;2.75;;;31.70;41.40;;;;;;5014754;28;20063;-68
2021/08/04 11:22:55;;;;;;;7.57;2.58;;;31.40;42.20;;;;;;5013235;28;20026;-68
2021/08/04 11:25:35;;;;;;;8.63;2.92;;;31.20;42.60;;;;;;5013392;28;20026;-68
2021/08/04 11:28:05;;;;;;;5.78;2.90;;;31.10;42.90;;;;;;5013937;28;20029;-68
2021/08/04 11:30:38;;;;;;;4.20;2.40;;;31.00;43.30;;;;;;5013245;28;20064;-68
2021/08/04 11:33:19;;;;;;;4.63;2.40;;;31.10;43.40;;;;;;5014772;28;20026;-68
2021/08/04 11:36:06;;;;;;;3.80;2.13;;;31.10;43.30;;;;;;5014235;28;20026;-68
2021/08/04 11:38:39;;;;;;;4.72;2.00;;;31.20;43.30;;;;;;5013810;28;20022;-68
2021/08/04 11:41:23;;;;;;;8.50;2.30;;;31.10;42.90;;;;;;5014552;28;20026;-68
2021/08/04 11:43:51;;;;;;;5.38;2.40;;;30.80;42.90;;;;;;5013160;28;20025;-67
2021/08/04 11:46:29;;;;;;;4.65;2.53;;;30.70;43.30;;;;;;5012819;28;20022;-68
2021/08/04 11:48:55;;;;;;;4.25;2.25;;;30.70;44.20;;;;;;5014337;28;20033;-68
2021/08/04 11:51:34;;;;;;;4.40;2.30;;;30.80;43.80;;;;;;5012848;28;20026;-68
2021/08/04 11:54:00;;;;;;;3.25;2.25;;;30.70;43.60;;;;;;5014310;28;20018;-68
2021/08/04 11:56:26;;;;;;;6.40;2.50;;;30.70;43.70;;;;;;5013946;28;20424;-69
2021/08/04 11:58:52;;;;;;;7.00;2.60;;;30.60;43.50;;;;;;5012315;28;20022;-68
2021/08/04 12:01:20;;;;;;;3.83;3.00;;;30.50;43.80;;;;;;5012738;28;20073;-68
2021/08/04 12:04:00;;;;;;;2.97;2.35;;;30.30;44.70;;;;;;5014180;28;20468;-68
2021/08/04 12:06:27;;;;;;;3.50;2.33;;;30.30;45.00;;;;;;5014036;28;20050;-68
2021/08/04 12:08:53;;;;;;;4.85;2.53;;;30.20;45.70;;;;;;5012875;28;20026;-68
2021/08/04 12:11:18;;;;;;;5.75;2.53;;;30.10;45.50;;;;;;5013028;28;20018;-68
2021/08/04 12:14:03;;;;;;;5.65;2.60;;;30.10;45.80;;;;;;5012693;28;20018;-68
2021/08/04 12:16:29;;;;;;;3.00;2.33;;;30.10;46.10;;;;;;5014171;28;20356;-68
2021/08/04 12:18:54;;;;;;;6.03;3.17;;;30.10;46.30;;;;;;5012772;28;20025;-68
2021/08/04 12:21:20;;;;;;;6.47;3.00;;;30.20;46.80;;;;;;5012551;28;20022;-67
2021/08/04 12:23:57;;;;;;;5.32;2.65;;;30.30;46.80;;;;;;5012265;28;20036;-68
2021/08/04 12:26:22;;;;;;;6.13;2.58;;;30.30;47.10;;;;;;5013903;28;20186;-67
2021/08/04 12:28:48;;;;;;;3.25;2.47;;;30.30;47.30;;;;;;5013782;28;20429;-67
2021/08/04 12:31:14;;;;;;;4.47;2.30;;;30.30;47.20;;;;;;5013701;28;20036;-67
2021/08/04 12:33:46;;;;;;;4.30;2.63;;;30.30;47.20;;;;;;5012537;28;20029;-68
2021/08/04 12:36:24;;;;;;;4.55;2.47;;;30.20;46.90;;;;;;5012300;28;20499;-68
2021/08/04 12:38:54;;;;;;;4.20;2.40;;;30.20;47.00;;;;;;5012427;28;20030;-67
2021/08/04 12:41:22;;;;;;;4.57;2.22;;;30.10;47.00;;;;;;5013806;28;20115;-68
2021/08/04 12:43:51;;;;;;;3.75;2.67;;;30.00;47.00;;;;;;5013606;28;20371;-67
2021/08/04 12:46:32;;;;;;;5.38;2.22;;;29.80;47.30;;;;;;5012376;28;20130;-68
2021/08/04 12:48:59;;;;;;;5.60;2.60;;;29.70;47.50;;;;;;5012988;28;20021;-68